Time;durP1;ratioP1;P1;durP2;ratioP2;P2;SDS_P1;SDS_P2;PMS_P1;PMS_P2;Temp;Humidity;BMP_temperature;BMP_pressure;BME280_temperature;BME280_humidity;BME280_pressure;Samples;Min_cycle;Max_cycle;Signal;HPM_P1;HPM_P2
2023/12/06 00:02:26;;;;;;;21.80;13.05;;;;;;;2.94;81.81;100870.69;7393699;19;20082;-67
2023/12/06 00:04:53;;;;;;;22.55;13.25;;;;;;;2.92;81.58;100869.88;7390341;19;20486;-68
2023/12/06 00:07:21;;;;;;;21.88;13.38;;;;;;;2.93;81.34;100874.19;7390258;19;20039;-67
2023/12/06 00:09:50;;;;;;;20.95;12.82;;;;;;;2.90;81.75;100861.22;7389910;19;20392;-67
2023/12/06 00:12:18;;;;;;;19.67;12.15;;;;;;;2.97;81.45;100867.06;7391050;19;20093;-68
2023/12/06 00:14:45;;;;;;;20.27;12.63;;;;;;;2.93;81.16;100868.94;7390460;19;20023;-68
2023/12/06 00:17:13;;;;;;;20.38;12.50;;;;;;;2.82;81.86;100865.91;7391248;19;20368;-68
2023/12/06 00:19:41;;;;;;;20.80;12.65;;;;;;;2.85;81.74;100866.66;7390560;19;20367;-67
2023/12/06 00:22:09;;;;;;;18.67;11.27;;;;;;;2.97;81.42;100869.69;7391255;19;20047;-69
2023/12/06 00:24:38;;;;;;;20.33;12.65;;;;;;;2.97;81.32;100867.91;7389537;19;20064;-70
2023/12/06 00:27:06;;;;;;;20.95;12.80;;;;;;;2.93;81.19;100871.56;7389715;19;20063;-70
2023/12/06 00:29:33;;;;;;;21.27;12.98;;;;;;;2.99;81.16;100871.34;7390550;19;20015;-70
2023/12/06 00:32:01;;;;;;;20.10;12.75;;;;;;;2.97;81.18;100867.06;7390950;19;20015;-70
2023/12/06 00:34:29;;;;;;;20.55;13.27;;;;;;;2.98;81.21;100874.00;7391200;19;20022;-69
2023/12/06 00:36:57;;;;;;;19.42;12.15;;;;;;;2.85;81.38;100879.72;7389119;19;20019;-69
2023/12/06 00:39:25;;;;;;;19.67;12.20;;;;;;;2.68;82.19;100872.56;7391141;19;20047;-69
2023/12/06 00:41:53;;;;;;;19.38;12.65;;;;;;;2.72;82.18;100869.81;7396719;19;20022;-70
2023/12/06 00:44:21;;;;;;;20.92;12.13;;;;;;;2.57;82.93;100885.19;7397015;19;20018;-71
2023/12/06 00:46:49;;;;;;;22.33;12.68;;;;;;;2.89;82.11;100880.44;7399187;19;20030;-71
2023/12/06 00:49:18;;;;;;;17.30;11.45;;;;;;;2.99;81.65;100876.56;7400597;19;20028;-70
2023/12/06 00:51:46;;;;;;;20.42;11.93;;;;;;;3.03;81.30;100882.53;7394787;19;20026;-70
2023/12/06 00:54:14;;;;;;;19.95;11.38;;;;;;;3.01;80.92;100886.94;7399939;19;20043;-70
2023/12/06 00:56:42;;;;;;;18.33;11.38;;;;;;;2.82;81.98;100892.06;7400493;19;20018;-70
2023/12/06 00:59:09;;;;;;;19.10;12.45;;;;;;;2.86;82.38;100894.53;7400981;19;20026;-70
2023/12/06 01:01:37;;;;;;;19.45;11.95;;;;;;;3.00;81.54;100895.72;7395214;19;20015;-70
2023/12/06 01:04:05;;;;;;;20.90;12.60;;;;;;;2.76;81.91;100901.00;7396087;19;20212;-70
2023/12/06 01:06:33;;;;;;;18.65;11.55;;;;;;;2.75;82.78;100903.66;7396270;19;20033;-70
2023/12/06 01:09:01;;;;;;;20.52;12.35;;;;;;;2.65;82.61;100908.41;7396947;19;20014;-70
2023/12/06 01:11:29;;;;;;;20.08;12.35;;;;;;;2.62;83.10;100903.31;7394638;19;20027;-68
2023/12/06 01:13:57;;;;;;;19.25;12.45;;;;;;;2.59;83.16;100909.50;7397416;19;20018;-69
2023/12/06 01:16:25;;;;;;;18.55;11.52;;;;;;;2.77;83.05;100907.09;7395107;19;20494;-69
2023/12/06 01:18:53;;;;;;;18.98;11.48;;;;;;;2.86;82.28;100914.56;7396900;19;20026;-69
2023/12/06 01:21:21;;;;;;;19.80;12.02;;;;;;;2.91;82.23;100915.25;7394144;19;20029;-69
2023/12/06 01:23:48;;;;;;;18.92;11.57;;;;;;;2.95;81.68;100918.59;7395708;19;20117;-68
2023/12/06 01:26:17;;;;;;;20.30;12.13;;;;;;;2.92;82.16;100919.56;7396771;19;20018;-68
2023/12/06 01:28:45;;;;;;;18.60;11.43;;;;;;;2.91;82.17;100926.56;7396882;19;20381;-68
2023/12/06 01:31:13;;;;;;;17.52;11.50;;;;;;;3.01;81.49;100932.28;7393884;19;20019;-68
2023/12/06 01:33:41;;;;;;;19.83;11.98;;;;;;;3.03;81.37;100930.47;7396474;19;20046;-68
2023/12/06 01:36:09;;;;;;;19.65;11.77;;;;;;;2.76;82.41;100936.78;7396181;19;20047;-68
2023/12/06 01:38:37;;;;;;;21.00;12.80;;;;;;;2.76;82.41;100934.16;7396833;19;20033;-68
2023/12/06 01:41:05;;;;;;;18.67;10.95;;;;;;;2.96;82.23;100944.69;7393926;19;20090;-68
2023/12/06 01:43:33;;;;;;;18.45;11.45;;;;;;;3.03;81.86;100942.69;7395349;19;20018;-69
2023/12/06 01:46:01;;;;;;;19.00;11.48;;;;;;;3.00;81.42;100937.56;7395909;19;20022;-69
2023/12/06 01:48:30;;;;;;;17.85;11.15;;;;;;;2.91;81.73;100946.66;7395867;19;20010;-70
2023/12/06 01:50:58;;;;;;;18.52;11.10;;;;;;;2.93;82.41;100944.81;7393842;19;20026;-70
2023/12/06 01:53:26;;;;;;;21.60;13.05;;;;;;;2.99;82.04;100946.34;7395921;19;20022;-69
2023/12/06 01:55:54;;;;;;;18.50;11.77;;;;;;;2.90;82.23;100944.91;7395622;19;20033;-70
2023/12/06 01:58:23;;;;;;;19.50;12.20;;;;;;;2.78;82.08;100934.94;7395301;19;20014;-68
2023/12/06 02:00:52;;;;;;;19.67;11.95;;;;;;;2.86;82.31;100946.81;7393332;19;20027;-68
2023/12/06 02:03:20;;;;;;;20.67;12.23;;;;;;;2.98;82.04;100936.78;7393799;19;20073;-69
2023/12/06 02:05:49;;;;;;;22.15;13.60;;;;;;;3.03;81.72;100942.69;7393585;19;20030;-68
2023/12/06 02:08:17;;;;;;;21.75;13.32;;;;;;;2.99;81.41;100936.72;7395640;19;20040;-67
2023/12/06 02:10:45;;;;;;;21.02;12.60;;;;;;;3.01;81.50;100941.88;7393756;19;20209;-68
2023/12/06 02:13:13;;;;;;;20.92;13.50;;;;;;;3.07;81.59;100942.50;7395427;19;20033;-68
2023/12/06 02:15:41;;;;;;;22.38;13.60;;;;;;;3.12;81.45;100944.94;7393783;19;20082;-68
2023/12/06 02:18:09;;;;;;;20.95;12.45;;;;;;;3.15;81.12;100940.44;7394549;19;20022;-68
2023/12/06 02:20:38;;;;;;;20.50;13.05;;;;;;;3.12;81.28;100935.31;7393348;19;20033;-68
2023/12/06 02:23:08;;;;;;;21.95;12.95;;;;;;;2.95;81.58;100939.53;7394803;19;20018;-68
2023/12/06 02:25:35;;;;;;;21.15;13.25;;;;;;;2.65;83.01;100940.63;7392806;19;20042;-68
2023/12/06 02:28:03;;;;;;;21.08;13.10;;;;;;;2.85;82.87;100942.47;7395502;19;20028;-68
2023/12/06 02:30:31;;;;;;;21.25;13.05;;;;;;;3.06;81.92;100943.44;7393026;19;20910;-68
2023/12/06 02:32:59;;;;;;;21.70;12.93;;;;;;;3.02;81.82;100947.06;7394481;19;20015;-68
2023/12/06 02:35:35;;;;;;;20.45;12.15;;;;;;;3.01;81.75;100941.88;7393035;19;20085;-68
2023/12/06 02:38:03;;;;;;;21.17;12.85;;;;;;;3.04;81.60;100945.22;7393506;19;20022;-68
2023/12/06 02:40:31;;;;;;;18.98;12.25;;;;;;;2.96;81.66;100944.69;7393459;19;20018;-68
2023/12/06 02:42:59;;;;;;;20.60;12.50;;;;;;;2.91;81.83;100947.50;7393998;19;20018;-68
2023/12/06 02:45:28;;;;;;;21.40;12.38;;;;;;;2.87;82.23;100950.28;7392780;19;20019;-68
2023/12/06 02:47:56;;;;;;;18.85;12.00;;;;;;;2.95;81.71;100950.00;7394641;19;20022;-68
2023/12/06 02:50:24;;;;;;;20.52;12.77;;;;;;;2.91;81.81;100951.88;7392733;19;20353;-68
2023/12/06 02:52:51;;;;;;;20.23;12.20;;;;;;;2.69;82.78;100957.06;7394688;19;20021;-69
2023/12/06 02:55:19;;;;;;;19.55;11.77;;;;;;;2.76;82.93;100958.53;7393713;19;20489;-69
2023/12/06 02:57:47;;;;;;;20.30;12.27;;;;;;;2.89;82.52;100951.91;7394068;19;20043;-69
2023/12/06 03:00:15;;;;;;;22.10;13.07;;;;;;;2.96;82.15;100952.53;7393154;19;20043;-68
2023/12/06 03:02:43;;;;;;;20.63;12.48;;;;;;;2.95;82.11;100947.38;7393626;19;20373;-68
2023/12/06 03:05:11;;;;;;;22.80;13.55;;;;;;;2.97;82.08;100949.00;7391679;19;20025;-68
2023/12/06 03:07:39;;;;;;;22.08;13.32;;;;;;;2.73;82.71;100944.72;7393882;19;20082;-68
2023/12/06 03:10:07;;;;;;;24.75;12.98;;;;;;;2.88;82.51;100958.06;7392266;19;20023;-68
2023/12/06 03:12:35;;;;;;;20.85;12.43;;;;;;;2.83;82.38;100948.72;7393528;19;20025;-68
2023/12/06 03:15:03;;;;;;;21.13;12.63;;;;;;;2.80;82.94;100951.44;7393176;19;20018;-69
2023/12/06 03:17:31;;;;;;;23.08;13.68;;;;;;;2.91;82.41;100951.88;7393116;19;20018;-69
2023/12/06 03:19:59;;;;;;;22.55;12.82;;;;;;;2.92;82.16;100945.72;7392015;19;20353;-69
2023/12/06 03:22:27;;;;;;;25.33;14.13;;;;;;;2.99;81.88;100949.81;7391887;19;20130;-69
2023/12/06 03:24:55;;;;;;;23.58;13.35;;;;;;;2.95;81.74;100961.31;7392109;19;20022;-69
2023/12/06 03:27:23;;;;;;;24.30;13.48;;;;;;;2.91;82.29;100957.94;7393129;19;20014;-68
2023/12/06 03:29:51;;;;;;;25.77;13.90;;;;;;;3.02;81.90;100964.53;7392581;19;20018;-68
2023/12/06 03:32:18;;;;;;;24.88;14.55;;;;;;;3.03;82.01;100956.63;7392615;19;20078;-68
2023/12/06 03:34:46;;;;;;;23.88;14.63;;;;;;;3.06;81.91;100958.28;7392915;19;20078;-68
2023/12/06 03:37:14;;;;;;;24.13;14.48;;;;;;;3.04;81.87;100965.31;7392577;19;20414;-68
2023/12/06 03:39:42;;;;;;;24.73;14.77;;;;;;;2.98;82.04;100968.16;7390379;19;20018;-68
2023/12/06 03:42:10;;;;;;;23.92;14.63;;;;;;;2.98;81.92;100968.16;7392213;19;20043;-69
2023/12/06 03:44:38;;;;;;;24.48;14.27;;;;;;;2.90;82.31;100966.72;7392265;19;20047;-69
2023/12/06 03:47:05;;;;;;;24.17;15.13;;;;;;;3.00;82.05;100971.56;7392731;19;20014;-68
2023/12/06 03:49:33;;;;;;;26.27;15.55;;;;;;;2.97;82.51;100977.78;7390237;19;20011;-69
2023/12/06 03:52:02;;;;;;;25.27;15.25;;;;;;;2.93;82.39;100976.19;7392439;19;20038;-69
2023/12/06 03:54:31;;;;;;;26.00;15.57;;;;;;;2.89;82.31;100982.44;7393087;19;20040;-69
2023/12/06 03:56:59;;;;;;;25.88;14.70;;;;;;;2.84;82.91;100980.03;7391958;19;20022;-68
2023/12/06 03:59:28;;;;;;;26.92;14.90;;;;;;;2.72;82.96;100974.41;7391548;19;20096;-66
2023/12/06 04:01:56;;;;;;;26.85;15.15;;;;;;;2.79;82.80;100976.72;7391082;19;20029;-66
2023/12/06 04:04:24;;;;;;;26.00;15.00;;;;;;;2.80;82.96;100985.44;7390976;19;20687;-66
2023/12/06 04:06:52;;;;;;;24.92;15.07;;;;;;;2.90;82.88;100984.16;7391540;19;20022;-69
2023/12/06 04:09:20;;;;;;;28.67;15.98;;;;;;;2.88;82.63;100980.75;7391543;19;20093;-69
2023/12/06 04:11:48;;;;;;;26.52;15.38;;;;;;;2.76;82.97;100979.47;7388881;19;20017;-69
2023/12/06 04:14:16;;;;;;;26.58;14.98;;;;;;;2.80;83.04;100980.19;7391689;19;20382;-69
2023/12/06 04:16:45;;;;;;;27.35;15.77;;;;;;;2.80;82.65;100980.19;7399074;19;20022;-69
2023/12/06 04:19:12;;;;;;;24.17;14.50;;;;;;;2.85;82.47;100983.47;7399126;19;20018;-69
2023/12/06 04:21:41;;;;;;;26.42;15.05;;;;;;;2.82;82.85;100978.34;7396387;19;20018;-69
2023/12/06 04:24:09;;;;;;;24.00;14.30;;;;;;;2.79;82.99;100984.59;7399927;19;20359;-66
2023/12/06 04:26:36;;;;;;;24.55;13.50;;;;;;;2.78;82.88;100984.63;7399039;19;20022;-66
2023/12/06 04:29:04;;;;;;;24.08;13.40;;;;;;;2.75;82.82;100977.75;7398920;19;20019;-66
2023/12/06 04:31:32;;;;;;;22.98;13.73;;;;;;;2.85;82.57;100993.94;7395118;19;20034;-66
2023/12/06 04:34:00;;;;;;;24.67;13.55;;;;;;;2.80;82.53;100999.34;7398696;19;20019;-67
2023/12/06 04:36:28;;;;;;;22.90;13.23;;;;;;;2.81;82.81;100995.81;7398243;19;20019;-67
2023/12/06 04:38:57;;;;;;;22.83;13.00;;;;;;;2.78;82.51;100995.94;7398202;19;20047;-67
2023/12/06 04:41:25;;;;;;;22.00;13.52;;;;;;;2.85;82.54;100996.56;7394875;19;20017;-68
2023/12/06 04:43:53;;;;;;;21.10;13.25;;;;;;;2.87;82.10;101000.81;7398054;19;20358;-68
2023/12/06 04:46:21;;;;;;;24.02;13.68;;;;;;;2.82;82.48;100999.28;7393848;19;20036;-68
2023/12/06 04:48:51;;;;;;;22.10;12.48;;;;;;;2.72;82.68;100997.94;7396818;19;20026;-68
2023/12/06 04:51:19;;;;;;;20.60;12.32;;;;;;;2.67;82.86;100995.47;7395502;19;20014;-68
2023/12/06 04:53:47;;;;;;;20.55;12.30;;;;;;;2.79;82.68;100992.41;7397739;19;20015;-68
2023/12/06 04:56:15;;;;;;;20.42;11.40;;;;;;;2.78;82.84;100995.94;7397841;19;20010;-68
2023/12/06 04:58:43;;;;;;;20.08;11.32;;;;;;;2.85;82.42;101004.41;7397296;19;20024;-68
2023/12/06 05:01:11;;;;;;;19.35;11.95;;;;;;;2.84;82.21;101005.31;7395081;19;20026;-68
2023/12/06 05:03:39;;;;;;;18.35;11.38;;;;;;;2.88;82.41;101005.13;7397121;19;20018;-68
2023/12/06 05:06:07;;;;;;;17.58;10.88;;;;;;;2.90;82.18;101005.94;7396104;19;20387;-68
2023/12/06 05:08:35;;;;;;;17.25;10.85;;;;;;;2.96;81.92;101014.47;7397878;19;20368;-68
2023/12/06 05:11:03;;;;;;;16.67;10.45;;;;;;;2.99;81.71;101023.06;7393806;19;20025;-68
2023/12/06 05:13:31;;;;;;;19.25;10.60;;;;;;;2.94;81.72;101025.00;7397079;19;20421;-68
2023/12/06 05:15:59;;;;;;;17.23;10.48;;;;;;;2.84;82.11;101018.41;7395821;19;20022;-68
2023/12/06 05:18:27;;;;;;;16.45;9.93;;;;;;;2.84;82.28;101026.25;7398240;19;20017;-68
2023/12/06 05:20:56;;;;;;;15.85;9.48;;;;;;;2.87;82.36;101028.75;7395691;19;20353;-68
2023/12/06 05:23:24;;;;;;;15.73;9.45;;;;;;;2.92;81.93;101037.25;7397419;19;20018;-68
2023/12/06 05:25:52;;;;;;;16.48;9.80;;;;;;;2.92;81.83;101038.13;7395726;19;20022;-68
2023/12/06 05:28:19;;;;;;;16.35;9.68;;;;;;;2.82;82.08;101041.13;7396992;19;20375;-68
2023/12/06 05:30:47;;;;;;;15.18;9.27;;;;;;;2.77;82.28;101041.28;7395682;19;20019;-68
2023/12/06 05:33:15;;;;;;;16.77;9.57;;;;;;;2.73;82.54;101029.25;7398296;19;20015;-68
2023/12/06 05:35:45;;;;;;;15.70;8.85;;;;;;;2.82;82.28;101041.97;7396667;19;20018;-66
2023/12/06 05:38:12;;;;;;;15.98;9.43;;;;;;;2.80;82.11;101035.13;7398866;19;20014;-66
2023/12/06 05:40:40;;;;;;;16.15;10.02;;;;;;;2.82;82.45;101041.13;7396924;19;20022;-66
2023/12/06 05:43:08;;;;;;;16.67;10.63;;;;;;;2.84;81.95;101034.09;7398506;19;20402;-66
2023/12/06 05:45:36;;;;;;;16.75;10.75;;;;;;;2.85;81.94;101041.00;7397047;19;20017;-66
2023/12/06 05:48:04;;;;;;;19.42;11.65;;;;;;;2.82;81.85;101041.13;7394381;19;20019;-65
2023/12/06 05:50:32;;;;;;;16.55;10.55;;;;;;;2.79;82.08;101042.09;7393724;19;20555;-65
2023/12/06 05:53:02;;;;;;;18.27;10.63;;;;;;;2.81;81.96;101042.88;7395724;19;20097;-65
2023/12/06 05:55:30;;;;;;;18.63;11.05;;;;;;;2.83;82.08;101046.31;7394193;19;20018;-65
2023/12/06 05:57:58;;;;;;;18.13;10.80;;;;;;;2.86;81.82;101048.81;7395753;19;20487;-65
2023/12/06 06:00:26;;;;;;;19.23;11.45;;;;;;;2.86;81.28;101053.16;7394271;19;20035;-69
2023/12/06 06:02:55;;;;;;;17.88;10.65;;;;;;;2.88;81.37;101046.97;7395624;19;20019;-69
2023/12/06 06:05:23;;;;;;;19.10;11.60;;;;;;;2.89;81.34;101050.44;7395232;19;20514;-69
2023/12/06 06:07:52;;;;;;;19.88;11.88;;;;;;;2.85;82.06;101048.84;7396159;19;20029;-69
2023/12/06 06:10:20;;;;;;;19.25;11.75;;;;;;;2.79;82.17;101049.94;7392403;19;20018;-69
2023/12/06 06:12:47;;;;;;;19.70;12.15;;;;;;;2.87;81.50;101054.91;7395644;19;20022;-69
2023/12/06 06:15:15;;;;;;;20.85;12.55;;;;;;;2.90;81.50;101058.25;7395285;19;20028;-69
2023/12/06 06:17:43;;;;;;;19.55;12.13;;;;;;;2.93;81.52;101065.97;7395729;19;20507;-68
2023/12/06 06:20:11;;;;;;;20.80;12.57;;;;;;;2.85;81.61;101065.41;7394066;19;20082;-68
2023/12/06 06:22:39;;;;;;;21.52;12.65;;;;;;;2.78;81.84;101063.91;7394932;19;20014;-69
2023/12/06 06:25:08;;;;;;;21.70;13.02;;;;;;;2.71;82.07;101059.84;7393379;19;20041;-68
2023/12/06 06:27:36;;;;;;;21.83;13.05;;;;;;;2.77;82.16;101066.59;7395325;19;20051;-68
2023/12/06 06:30:04;;;;;;;24.20;13.35;;;;;;;2.70;82.11;101058.13;7393467;19;20018;-67
2023/12/06 06:32:32;;;;;;;23.52;13.95;;;;;;;2.68;82.12;101067.78;7394739;19;20433;-67
2023/12/06 06:35:00;;;;;;;20.85;12.52;;;;;;;2.67;82.12;101064.31;7393338;19;20024;-68
2023/12/06 06:37:29;;;;;;;22.38;13.15;;;;;;;2.73;81.91;101070.22;7393672;19;20015;-68
2023/12/06 06:39:57;;;;;;;21.30;12.88;;;;;;;2.71;82.25;101070.31;7390439;19;20018;-70
2023/12/06 06:42:25;;;;;;;24.17;13.23;;;;;;;2.69;82.12;101072.94;7393903;19;20500;-67
2023/12/06 06:44:55;;;;;;;23.50;12.55;;;;;;;2.76;81.53;101070.97;7392689;19;20039;-68
2023/12/06 06:47:23;;;;;;;22.83;13.43;;;;;;;2.71;81.67;101075.53;7392933;19;20090;-67
2023/12/06 06:49:53;;;;;;;23.55;13.85;;;;;;;2.72;81.89;101079.00;7391320;19;20043;-68
2023/12/06 06:52:21;;;;;;;21.60;13.05;;;;;;;2.70;81.76;101076.41;7394029;19;20015;-68
2023/12/06 06:54:49;;;;;;;23.15;13.75;;;;;;;2.76;81.17;101077.97;7394200;19;20014;-67
2023/12/06 06:57:17;;;;;;;22.05;12.73;;;;;;;2.75;81.36;101082.34;7394216;19;20539;-67
2023/12/06 06:59:45;;;;;;;21.30;11.95;;;;;;;2.68;81.81;101079.09;7393011;19;20026;-68
2023/12/06 07:02:13;;;;;;;21.50;12.35;;;;;;;2.71;81.66;101082.50;7392308;19;20022;-66
2023/12/06 07:04:44;;;;;;;22.95;13.18;;;;;;;2.72;81.55;101089.44;7393582;19;20025;-66
2023/12/06 07:07:11;;;;;;;20.95;12.55;;;;;;;2.64;81.59;101090.56;7389847;19;20043;-66
2023/12/06 07:09:39;;;;;;;20.63;12.50;;;;;;;2.64;81.87;101090.56;7392363;19;20018;-66
2023/12/06 07:12:08;;;;;;;21.20;11.48;;;;;;;2.68;81.57;101100.00;7393302;19;20026;-66
2023/12/06 07:14:36;;;;;;;21.98;12.77;;;;;;;2.66;81.74;101096.59;7392999;19;20026;-67
2023/12/06 07:17:04;;;;;;;22.13;13.25;;;;;;;2.64;82.05;101103.66;7393197;19;20030;-67
2023/12/06 07:19:32;;;;;;;21.88;13.32;;;;;;;2.66;82.11;101108.81;7392609;19;20022;-67
2023/12/06 07:22:00;;;;;;;23.70;12.55;;;;;;;2.73;81.62;101118.16;7392365;19;20043;-66
2023/12/06 07:24:28;;;;;;;21.30;12.70;;;;;;;2.75;81.51;101121.56;7391031;19;20031;-66
2023/12/06 07:26:56;;;;;;;22.63;12.45;;;;;;;2.72;81.48;101123.44;7391486;19;20022;-67
2023/12/06 07:29:24;;;;;;;21.88;12.82;;;;;;;2.78;81.40;101128.44;7392787;19;20015;-66
2023/12/06 07:31:52;;;;;;;25.38;12.82;;;;;;;2.76;81.26;101128.50;7392456;19;20018;-66
2023/12/06 07:34:20;;;;;;;21.20;12.80;;;;;;;2.80;81.13;101132.72;7391165;19;20050;-66
2023/12/06 07:36:53;;;;;;;25.33;12.88;;;;;;;2.76;80.94;101132.88;7393352;19;20019;-66
2023/12/06 07:39:21;;;;;;;23.85;12.90;;;;;;;2.74;81.30;101127.69;7393077;19;20504;-66
2023/12/06 07:41:50;;;;;;;26.35;13.82;;;;;;;2.69;81.30;101132.25;7388364;19;20014;-68
2023/12/06 07:44:20;;;;;;;21.98;12.95;;;;;;;2.75;81.04;101139.00;7390821;19;20017;-68
2023/12/06 07:46:48;;;;;;;21.67;12.05;;;;;;;2.73;80.98;101133.84;7391686;19;20022;-68
2023/12/06 07:49:16;;;;;;;24.40;13.30;;;;;;;2.71;81.06;101137.41;7391392;19;20018;-68
2023/12/06 07:51:47;;;;;;;25.15;14.45;;;;;;;2.80;80.82;101143.19;7390010;19;20479;-68
2023/12/06 07:54:16;;;;;;;22.50;13.05;;;;;;;2.80;80.59;101142.31;7392104;19;20018;-68
2023/12/06 07:56:44;;;;;;;22.23;12.63;;;;;;;2.81;80.33;101147.50;7392287;19;20022;-67
2023/12/06 07:59:12;;;;;;;21.48;13.13;;;;;;;2.72;80.60;101154.81;7392373;19;20015;-68
2023/12/06 08:01:43;;;;;;;23.10;14.52;;;;;;;2.77;80.68;101153.75;7389387;19;20391;-67
2023/12/06 08:04:13;;;;;;;24.25;14.25;;;;;;;2.79;80.65;101159.78;7392054;19;20491;-67
2023/12/06 08:06:41;;;;;;;23.67;14.15;;;;;;;2.86;80.54;101165.63;7388974;19;20379;-66
2023/12/06 08:09:10;;;;;;;23.90;14.05;;;;;;;2.82;80.39;101166.66;7390393;19;20023;-67
2023/12/06 08:11:39;;;;;;;22.65;13.85;;;;;;;2.80;80.46;101169.31;7390047;19;20022;-69
2023/12/06 08:14:07;;;;;;;23.80;13.75;;;;;;;2.85;80.63;101175.25;7390077;19;20011;-66
2023/12/06 08:16:35;;;;;;;22.67;13.88;;;;;;;2.83;80.21;101173.59;7389820;19;20015;-66
2023/12/06 08:19:06;;;;;;;24.50;15.20;;;;;;;2.82;80.64;101177.97;7389946;19;20383;-66
2023/12/06 08:21:36;;;;;;;27.85;16.50;;;;;;;2.81;80.33;101184.09;7389530;19;20026;-65
2023/12/06 08:24:05;;;;;;;29.33;16.60;;;;;;;2.93;80.27;101188.06;7391267;19;20431;-66
2023/12/06 08:26:34;;;;;;;33.78;19.60;;;;;;;2.96;80.20;101194.94;7390128;19;20015;-66
2023/12/06 08:29:01;;;;;;;33.97;20.35;;;;;;;2.93;80.21;101198.50;7391592;19;20022;-67
2023/12/06 08:31:31;;;;;;;36.70;21.88;;;;;;;2.78;80.79;101191.19;7389392;19;20090;-67
2023/12/06 08:33:59;;;;;;;35.72;20.98;;;;;;;2.84;80.85;101198.84;7391242;19;20029;-67
2023/12/06 08:36:30;;;;;;;43.00;23.05;;;;;;;2.84;80.71;101197.06;7389565;19;20019;-66
2023/12/06 08:39:00;;;;;;;42.10;23.42;;;;;;;2.86;81.01;101199.63;7390910;19;20019;-66
2023/12/06 08:41:30;;;;;;;37.95;22.15;;;;;;;2.89;80.32;101200.38;7388671;19;20019;-65
2023/12/06 08:44:01;;;;;;;37.78;21.05;;;;;;;2.89;80.04;101208.22;7391085;19;20047;-65
2023/12/06 08:46:29;;;;;;;33.10;19.75;;;;;;;2.93;80.31;101206.34;7389776;19;20043;-65
2023/12/06 08:49:00;;;;;;;33.22;19.48;;;;;;;2.90;80.36;101207.34;7390705;19;20038;-65
2023/12/06 08:51:28;;;;;;;29.67;18.95;;;;;;;2.94;79.88;101205.47;7386773;19;20018;-65
2023/12/06 08:53:57;;;;;;;30.92;18.85;;;;;;;2.93;79.74;101206.34;7390417;19;20361;-64
2023/12/06 08:56:28;;;;;;;34.25;19.52;;;;;;;3.00;79.92;101207.84;7390352;19;20023;-65
2023/12/06 08:58:56;;;;;;;34.35;19.77;;;;;;;3.00;79.53;101202.63;7388989;19;20011;-65
2023/12/06 09:01:24;;;;;;;30.38;18.02;;;;;;;2.94;79.49;101202.84;7389600;19;20023;-65
2023/12/06 09:03:53;;;;;;;31.00;18.70;;;;;;;2.91;79.56;101210.81;7397351;19;20019;-65
2023/12/06 09:06:20;;;;;;;31.92;18.92;;;;;;;2.89;79.80;101213.44;7396644;19;20018;-64
2023/12/06 09:08:51;;;;;;;33.72;18.88;;;;;;;2.99;79.33;101216.63;7397792;19;20014;-64
2023/12/06 09:11:19;;;;;;;33.05;20.05;;;;;;;2.95;79.60;101215.03;7394920;19;20019;-67
2023/12/06 09:13:48;;;;;;;31.45;18.92;;;;;;;3.04;79.27;101219.06;7397158;19;20017;-65
2023/12/06 09:16:16;;;;;;;34.05;19.73;;;;;;;3.03;78.92;101214.75;7397090;19;20401;-65
2023/12/06 09:18:44;;;;;;;31.45;20.25;;;;;;;3.09;79.41;101211.91;7395675;19;20027;-65
2023/12/06 09:21:13;;;;;;;33.50;18.75;;;;;;;3.03;78.90;101222.59;7394697;19;20387;-65
2023/12/06 09:23:42;;;;;;;31.00;18.90;;;;;;;3.11;79.12;101223.19;7395623;19;20051;-65
2023/12/06 09:26:10;;;;;;;31.42;19.02;;;;;;;3.13;78.71;101229.22;7396157;19;20018;-65
2023/12/06 09:28:38;;;;;;;28.20;17.50;;;;;;;3.16;78.72;101231.72;7395358;19;20451;-65
2023/12/06 09:31:06;;;;;;;29.20;17.30;;;;;;;3.12;79.00;101227.50;7392683;19;20014;-65
2023/12/06 09:33:34;;;;;;;28.90;18.48;;;;;;;3.09;79.05;101228.47;7396479;19;20025;-65
2023/12/06 09:36:03;;;;;;;29.10;18.42;;;;;;;3.23;78.68;101237.59;7397089;19;20018;-65
2023/12/06 09:38:32;;;;;;;27.30;17.35;;;;;;;3.26;78.20;101246.19;7395947;19;20490;-64
2023/12/06 09:41:02;;;;;;;27.92;17.48;;;;;;;3.27;78.45;101250.50;7393920;19;20010;-66
2023/12/06 09:43:30;;;;;;;30.77;18.85;;;;;;;3.19;78.93;101252.53;7395653;19;20024;-65
2023/12/06 09:45:58;;;;;;;29.73;18.20;;;;;;;3.15;78.91;101249.19;7394209;19;20526;-65
2023/12/06 09:48:26;;;;;;;27.73;17.23;;;;;;;3.24;78.59;101252.38;7395778;19;20011;-65
2023/12/06 09:50:54;;;;;;;28.10;17.63;;;;;;;3.21;78.82;101252.50;7393950;19;20478;-66
2023/12/06 09:53:23;;;;;;;29.20;18.00;;;;;;;3.20;78.81;101259.47;7395696;19;20026;-64
2023/12/06 09:55:52;;;;;;;27.70;17.42;;;;;;;3.16;78.64;101256.13;7395781;19;20371;-64
2023/12/06 09:58:20;;;;;;;28.85;18.05;;;;;;;3.16;78.40;101260.50;7395785;19;20021;-65
2023/12/06 10:00:48;;;;;;;28.85;18.38;;;;;;;3.13;78.63;101258.00;7393973;19;20424;-65
2023/12/06 10:03:16;;;;;;;29.98;19.02;;;;;;;3.18;78.88;101254.31;7393861;19;20022;-65
2023/12/06 10:05:54;;;;;;;30.98;17.95;;;;;;;3.30;78.26;101262.66;7395837;19;20430;-65
2023/12/06 10:08:21;;;;;;;30.25;18.27;;;;;;;3.24;78.63;101261.09;7393524;19;20035;-65
2023/12/06 10:11:07;;;;;;;29.33;18.25;;;;;;;3.24;78.27;101263.69;7391641;19;20019;-65
2023/12/06 10:13:37;;;;;;;31.27;19.00;;;;;;;3.20;78.54;101261.25;7394497;19;20372;-65
2023/12/06 10:16:14;;;;;;;31.25;19.55;;;;;;;3.22;78.56;101267.31;7395593;19;20349;-65
2023/12/06 10:18:47;;;;;;;32.67;20.77;;;;;;;3.13;79.09;101265.88;7395069;19;20039;-65
2023/12/06 10:21:17;;;;;;;33.92;20.58;;;;;;;3.19;79.14;101260.41;7392775;19;20026;-65
2023/12/06 10:24:00;;;;;;;34.03;22.23;;;;;;;3.24;78.81;101262.84;7395119;19;20014;-65
2023/12/06 10:26:29;;;;;;;35.75;22.15;;;;;;;3.23;78.75;101255.91;7394981;19;20015;-65
2023/12/06 10:28:59;;;;;;;36.58;22.90;;;;;;;3.18;79.16;101262.16;7397597;19;20018;-65
2023/12/06 10:31:27;;;;;;;35.08;21.95;;;;;;;3.21;79.21;101265.59;7394047;19;20026;-65
2023/12/06 10:33:56;;;;;;;39.78;24.20;;;;;;;3.21;79.12;101265.59;7397282;19;20026;-65
2023/12/06 10:36:26;;;;;;;38.35;24.73;;;;;;;3.28;78.84;101261.81;7398769;19;20026;-64
2023/12/06 10:38:55;;;;;;;38.65;24.33;;;;;;;3.41;78.84;101266.59;7397323;19;20014;-64
2023/12/06 10:41:30;;;;;;;38.60;24.65;;;;;;;3.44;78.17;101263.03;7393236;19;20010;-64
2023/12/06 10:44:01;;;;;;;;;;;;;;;3.38;78.33;101266.69;7395941;19;20070;-64
2023/12/06 10:46:30;;;;;;;32.33;20.63;;;;;;;3.28;78.99;101267.06;7394959;19;19927;-64
2023/12/06 10:49:00;;;;;;;35.00;21.92;;;;;;;3.32;78.66;101260.81;7395081;19;20043;-65
2023/12/06 10:51:30;;;;;;;32.38;21.92;;;;;;;3.46;78.45;101261.19;7392452;19;20025;-65
2023/12/06 10:53:59;;;;;;;34.53;21.48;;;;;;;3.48;78.46;101263.75;7394225;19;20089;-65
2023/12/06 10:56:28;;;;;;;35.08;22.15;;;;;;;3.40;78.32;101257.03;7394074;19;20026;-65
2023/12/06 10:58:57;;;;;;;35.70;21.15;;;;;;;3.29;78.59;101255.72;7393908;19;20023;-65
2023/12/06 11:01:25;;;;;;;36.20;22.23;;;;;;;3.34;78.73;101262.47;7390067;19;20018;-65
2023/12/06 11:03:54;;;;;;;33.13;20.67;;;;;;;3.50;78.40;101257.53;7395248;19;20050;-65
2023/12/06 11:06:58;;;;;;;35.35;21.63;;;;;;;3.46;78.37;101257.72;7395391;19;20360;-65
2023/12/06 11:09:42;;;;;;;35.47;22.13;;;;;;;3.44;78.22;101254.31;7394382;19;20014;-65
2023/12/06 11:12:38;;;;;;;35.58;22.25;;;;;;;3.42;78.22;101263.06;7394517;19;20025;-65
2023/12/06 11:15:25;;;;;;;37.38;22.77;;;;;;;3.34;78.63;101264.25;7394383;19;20010;-65
2023/12/06 11:18:12;;;;;;;38.67;23.23;;;;;;;3.27;79.04;101267.97;7391943;19;20091;-66
2023/12/06 11:20:42;;;;;;;38.03;23.52;;;;;;;3.34;79.20;101269.47;7390115;19;20025;-65
2023/12/06 11:23:12;;;;;;;36.40;22.35;;;;;;;3.37;79.05;101266.75;7391417;19;20029;-66
2023/12/06 11:25:45;;;;;;;34.60;21.67;;;;;;;3.28;78.90;101261.81;7390820;19;20026;-66